createdAt,value
2023-05-23T00:00:07.674Z,14.0016
2023-05-23T00:01:15.562Z,14.1216
2023-05-23T00:02:23.694Z,14.4212
2023-05-23T00:03:31.715Z,13.7396
2023-05-23T00:04:39.889Z,13.4839
2023-05-23T00:05:47.911Z,13.6892
2023-05-23T00:06:56.075Z,13.8893
2023-05-23T00:08:03.752Z,14.0576
2023-05-23T00:09:11.996Z,13.8076
2023-05-23T00:10:19.874Z,14.1109
2023-05-23T00:11:28.308Z,14.0377
2023-05-23T00:12:36.148Z,13.5209
2023-05-23T00:13:44.212Z,13.8557
2023-05-23T00:14:52.235Z,13.9215
2023-05-23T00:16:00.478Z,13.9367
2023-05-23T00:17:08.504Z,13.6743
2023-05-23T00:18:16.465Z,13.3187
2023-05-23T00:19:24.414Z,13.3041
2023-05-23T00:20:32.550Z,13.5644
2023-05-23T00:21:40.714Z,13.7418
2023-05-23T00:22:48.729Z,13.6471
2023-05-23T00:23:56.741Z,13.2072
2023-05-23T00:25:04.920Z,12.2210
2023-05-23T00:26:12.888Z,12.9977
2023-05-23T00:27:20.909Z,13.1579
2023-05-23T00:28:29.020Z,12.5249
2023-05-23T00:29:37.109Z,12.6639
2023-05-23T00:30:45.065Z,13.2578
2023-05-23T00:31:53.311Z,13.4572
2023-05-23T00:33:01.506Z,13.7149
2023-05-23T00:34:09.249Z,12.9482
2023-05-23T00:35:17.398Z,12.3788
2023-05-23T00:36:25.392Z,12.5805
2023-05-23T00:37:33.610Z,12.8071
2023-05-23T00:38:41.731Z,12.4992
2023-05-23T00:39:49.675Z,12.8417
2023-05-23T00:40:57.735Z,12.3037
2023-05-23T00:42:05.727Z,12.6073
2023-05-23T00:43:14.003Z,12.7510
2023-05-23T00:44:22.560Z,12.4070
2023-05-23T00:45:29.993Z,12.1050
2023-05-23T00:46:38.339Z,12.1146
2023-05-23T00:47:46.151Z,12.5899
2023-05-23T00:48:54.192Z,11.8920
2023-05-23T00:50:02.241Z,12.8391
2023-05-23T00:51:10.445Z,12.7278
2023-05-23T00:52:18.410Z,12.8007
2023-05-23T00:53:26.674Z,12.8155
2023-05-23T00:54:34.460Z,13.3422
2023-05-23T00:55:42.689Z,12.5454
2023-05-23T00:56:50.641Z,12.6683
2023-05-23T00:57:58.692Z,12.6426
2023-05-23T00:59:06.623Z,12.5885
2023-05-23T01:00:14.775Z,13.1053
2023-05-23T01:01:23.044Z,12.8321
2023-05-23T01:02:30.977Z,12.2060
2023-05-23T01:03:39.153Z,11.9351
2023-05-23T01:04:46.882Z,11.7082
2023-05-23T01:05:55.187Z,12.2683
2023-05-23T01:07:03.216Z,12.5138
2023-05-23T01:08:11.243Z,12.5442
2023-05-23T01:09:19.300Z,12.3223
2023-05-23T01:10:27.451Z,12.5938
2023-05-23T01:11:35.438Z,12.2307
2023-05-23T01:12:43.486Z,11.7167
2023-05-23T01:13:51.503Z,12.1658
2023-05-23T01:14:59.567Z,12.2061
2023-05-23T01:16:07.655Z,12.6085
2023-05-23T01:17:15.649Z,12.3907
2023-05-23T01:18:23.766Z,11.9256
2023-05-23T01:19:31.683Z,11.1237
2023-05-23T01:20:39.855Z,12.1293
2023-05-23T01:21:47.936Z,11.5528
2023-05-23T01:22:55.895Z,11.8550
2023-05-23T01:24:04.051Z,12.3308
2023-05-23T01:25:12.057Z,12.3487
2023-05-23T01:26:20.323Z,12.4934
2023-05-23T01:27:28.222Z,12.1336
2023-05-23T01:28:36.362Z,12.5109
2023-05-23T01:29:44.391Z,12.3584
2023-05-23T01:30:52.442Z,12.7647
2023-05-23T01:32:00.497Z,13.0767
2023-05-23T01:33:08.592Z,12.7438
2023-05-23T01:34:16.478Z,12.4797
2023-05-23T01:35:24.688Z,12.0651
2023-05-23T01:36:32.715Z,12.8497
2023-05-23T01:37:40.761Z,12.9965
2023-05-23T01:38:49.036Z,11.9937
2023-05-23T01:39:56.774Z,12.7115
2023-05-23T01:41:05.046Z,11.9826
2023-05-23T01:42:13.072Z,11.6416
2023-05-23T01:43:21.051Z,11.4542
2023-05-23T01:44:29.268Z,10.9972
2023-05-23T01:45:37.207Z,12.0862
2023-05-23T01:46:45.240Z,12.2781
2023-05-23T01:47:53.379Z,12.3613
2023-05-23T01:49:01.522Z,12.8481
2023-05-23T01:50:09.392Z,11.9258
2023-05-23T01:51:17.354Z,12.0827
2023-05-23T01:52:25.534Z,12.4027
2023-05-23T01:53:33.603Z,12.1493
2023-05-23T01:54:41.941Z,12.2492
2023-05-23T01:55:49.724Z,12.6957
2023-05-23T01:56:57.699Z,12.4558
2023-05-23T01:58:05.798Z,12.5280
2023-05-23T01:59:13.864Z,12.5915
2023-05-23T02:00:22.005Z,12.6726
2023-05-23T02:01:30.048Z,12.4383
2023-05-23T02:02:38.230Z,12.2726
2023-05-23T02:03:46.136Z,13.2762
2023-05-23T02:04:54.248Z,12.2210
2023-05-23T02:06:02.310Z,12.2944
2023-05-23T02:07:10.287Z,12.6395
2023-05-23T02:08:18.355Z,12.3799
2023-05-23T02:09:26.523Z,12.4413
2023-05-23T02:10:34.571Z,11.7782
2023-05-23T02:11:42.546Z,11.4847
2023-05-23T02:12:50.714Z,12.3686
2023-05-23T02:13:58.654Z,12.1158
2023-05-23T02:15:06.712Z,11.5791
2023-05-23T02:16:14.969Z,13.3628
2023-05-23T02:17:22.897Z,14.3094
2023-05-23T02:18:30.915Z,13.6922
2023-05-23T02:19:38.906Z,13.0856
2023-05-23T02:20:47.030Z,12.5131
2023-05-23T02:21:55.136Z,12.2381
2023-05-23T02:23:03.157Z,12.1517
2023-05-23T02:24:11.453Z,12.7006
2023-05-23T02:25:19.326Z,12.8430
2023-05-23T02:26:27.367Z,12.9739
2023-05-23T02:27:35.419Z,12.2429
2023-05-23T02:28:43.391Z,12.3599
2023-05-23T02:29:51.506Z,12.8050
2023-05-23T02:30:59.806Z,13.1467
2023-05-23T02:32:07.663Z,13.5857
2023-05-23T02:33:15.764Z,13.9611
2023-05-23T02:34:23.889Z,13.7640
2023-05-23T02:35:31.822Z,13.6383
2023-05-23T02:36:39.925Z,14.2956
2023-05-23T02:37:47.921Z,14.0039
2023-05-23T02:38:56.211Z,14.9869
2023-05-23T02:40:03.924Z,14.7649
2023-05-23T02:41:12.187Z,15.0049
2023-05-23T02:42:20.208Z,13.8983
2023-05-23T02:43:28.091Z,13.3302
2023-05-23T02:44:36.372Z,13.1112
2023-05-23T02:45:44.389Z,11.4350
2023-05-23T02:46:52.629Z,13.4201
2023-05-23T02:48:00.458Z,14.4928
2023-05-23T02:49:08.546Z,14.7532
2023-05-23T02:50:16.552Z,13.9842
2023-05-23T02:51:24.531Z,15.2773
2023-05-23T02:52:32.722Z,14.0368
2023-05-23T02:53:40.902Z,13.9188
2023-05-23T02:54:48.664Z,13.8928
2023-05-23T02:55:56.867Z,13.7917
2023-05-23T02:57:04.969Z,13.7270
2023-05-23T02:58:12.969Z,13.7060
2023-05-23T02:59:21.050Z,13.6200
2023-05-23T03:00:29.155Z,14.1715
2023-05-23T03:01:37.138Z,13.2888
2023-05-23T03:02:45.472Z,12.8732
2023-05-23T03:03:53.256Z,13.5186
2023-05-23T03:05:01.308Z,13.1040
2023-05-23T03:06:09.256Z,14.4740
2023-05-23T03:07:27.486Z,14.4476
2023-05-23T03:08:30.351Z,14.4691
2023-05-23T03:09:38.394Z,13.9750
2023-05-23T03:10:46.464Z,13.5565
2023-05-23T03:11:54.643Z,14.5145
2023-05-23T03:13:02.635Z,13.7882
2023-05-23T03:14:10.634Z,14.4541
2023-05-23T03:15:18.712Z,14.9822
2023-05-23T03:16:26.862Z,14.8244
2023-05-23T03:17:34.697Z,14.9437
2023-05-23T03:18:42.925Z,15.1562
2023-05-23T03:19:50.955Z,14.6503
2023-05-23T03:20:59.009Z,14.9159
2023-05-23T03:22:07.207Z,14.5709
2023-05-23T03:23:15.146Z,16.0604
2023-05-23T03:24:23.185Z,15.9553
2023-05-23T03:25:31.263Z,15.4430
2023-05-23T03:26:39.285Z,15.4447
2023-05-23T03:27:47.321Z,13.9243
2023-05-23T03:28:55.463Z,13.8759
2023-05-23T03:30:03.704Z,14.0920
2023-05-23T03:31:11.601Z,14.1251
2023-05-23T03:32:19.660Z,14.4272
2023-05-23T03:33:27.631Z,15.5394
2023-05-23T03:34:35.714Z,15.0451
2023-05-23T03:35:43.734Z,14.4560
2023-05-23T03:36:51.808Z,15.0347
2023-05-23T03:37:59.701Z,15.0700
2023-05-23T03:39:07.968Z,14.8556
2023-05-23T03:40:16.019Z,15.3314
2023-05-23T03:41:24.022Z,14.7319
2023-05-23T03:42:32.159Z,14.3125
2023-05-23T03:43:40.023Z,13.9175
2023-05-23T03:44:48.447Z,14.0239
2023-05-23T03:45:56.369Z,14.1644
2023-05-23T03:47:04.366Z,13.9364
2023-05-23T03:48:12.474Z,14.1331
2023-05-23T03:49:20.289Z,14.6658
2023-05-23T03:50:28.731Z,13.6974
2023-05-23T03:51:36.551Z,13.9975
2023-05-23T03:52:44.491Z,13.9705
2023-05-23T03:53:52.684Z,14.2310
2023-05-23T03:55:00.632Z,13.8656
2023-05-23T03:56:08.777Z,13.7641
2023-05-23T03:57:16.851Z,14.4123
2023-05-23T03:58:24.757Z,14.4414
2023-05-23T03:59:32.965Z,13.8965
2023-05-23T04:00:41.356Z,13.4865
2023-05-23T04:01:49.078Z,13.8628
2023-05-23T04:02:57.198Z,13.7366
2023-05-23T04:04:05.377Z,13.3186
2023-05-23T04:05:13.482Z,13.4256
2023-05-23T04:06:21.309Z,13.3278
2023-05-23T04:07:29.409Z,14.4516
2023-05-23T04:08:37.515Z,13.6565
2023-05-23T04:09:45.681Z,14.3200
2023-05-23T04:10:53.564Z,13.3379
2023-05-23T04:12:01.608Z,13.4743
2023-05-23T04:13:09.700Z,13.5369
2023-05-23T04:14:18.027Z,13.9987
2023-05-23T04:15:25.942Z,14.1620
2023-05-23T04:16:33.949Z,14.3554
2023-05-23T04:17:41.917Z,14.7573
2023-05-23T04:18:50.106Z,14.0087
2023-05-23T04:19:58.091Z,14.6263
2023-05-23T04:21:06.090Z,14.3761
2023-05-23T04:22:14.107Z,15.0303
2023-05-23T04:23:22.215Z,14.5542
2023-05-23T04:24:30.254Z,14.0717
2023-05-23T04:25:38.396Z,14.4815
2023-05-23T04:26:46.598Z,14.4232
2023-05-23T04:27:54.418Z,14.3781
2023-05-23T04:29:02.581Z,14.5396
2023-05-23T04:30:10.517Z,14.7214
2023-05-23T04:31:18.683Z,14.7421
2023-05-23T04:32:26.554Z,14.2311
2023-05-23T04:33:35.140Z,14.7238
2023-05-23T04:34:42.762Z,15.0984
2023-05-23T04:35:50.965Z,14.4132
2023-05-23T04:36:58.971Z,14.9214
2023-05-23T04:38:06.960Z,15.6577
2023-05-23T04:39:14.938Z,15.3600
2023-05-23T04:40:23.114Z,14.9332
2023-05-23T04:41:31.287Z,14.9049
2023-05-23T04:42:39.228Z,14.3059
2023-05-23T04:43:47.286Z,14.0648
2023-05-23T04:44:55.216Z,14.5018
2023-05-23T04:46:03.414Z,13.8588
2023-05-23T04:47:11.563Z,14.2523
2023-05-23T04:48:19.717Z,14.5290
2023-05-23T04:49:27.578Z,14.8043
2023-05-23T04:50:35.496Z,14.8868
2023-05-23T04:51:43.836Z,14.8192
2023-05-23T04:52:51.761Z,15.2111
2023-05-23T04:53:59.792Z,14.7321
2023-05-23T04:55:07.908Z,15.1431
2023-05-23T04:56:15.827Z,15.0663
2023-05-23T04:57:23.996Z,15.3485
2023-05-23T04:58:31.918Z,14.9832
2023-05-23T04:59:40.151Z,15.4244
2023-05-23T05:00:48.224Z,15.0979
2023-05-23T05:01:56.297Z,14.7521
2023-05-23T05:03:04.313Z,15.6557
2023-05-23T05:04:12.402Z,15.1377
2023-05-23T05:05:20.408Z,15.5918
2023-05-23T05:06:28.557Z,15.1898
2023-05-23T05:07:36.634Z,15.0978
2023-05-23T05:08:44.583Z,15.1641
2023-05-23T05:09:52.709Z,14.7141
2023-05-23T05:11:00.612Z,14.6547
2023-05-23T05:12:08.830Z,15.0029
2023-05-23T05:13:16.882Z,15.3287
2023-05-23T05:14:24.874Z,14.8281
2023-05-23T05:15:32.929Z,14.5034
2023-05-23T05:16:40.912Z,15.0170
2023-05-23T05:17:49.960Z,15.6721
2023-05-23T05:18:57.009Z,16.2427
2023-05-23T05:20:05.197Z,16.0824
2023-05-23T05:21:13.365Z,15.6012
2023-05-23T05:22:21.300Z,15.4252
2023-05-23T05:23:29.421Z,15.2701
2023-05-23T05:24:37.259Z,15.3601
2023-05-23T05:25:45.436Z,15.9961
2023-05-23T05:26:53.500Z,15.9089
2023-05-23T05:28:01.478Z,15.0921
2023-05-23T05:29:09.968Z,15.8924
2023-05-23T05:30:17.551Z,16.7124
2023-05-23T05:31:25.816Z,16.1744
2023-05-23T05:32:33.890Z,16.1403
2023-05-23T05:33:41.842Z,16.3295
2023-05-23T05:34:49.980Z,16.9025
2023-05-23T05:35:57.946Z,16.9015
2023-05-23T05:37:06.045Z,16.6646
2023-05-23T05:38:14.534Z,16.7710
2023-05-23T05:39:22.357Z,16.9689
2023-05-23T05:40:30.188Z,17.2549
2023-05-23T05:41:38.279Z,25.8727
2023-05-23T05:42:46.381Z,24.5346
2023-05-23T05:43:54.384Z,21.2509
2023-05-23T05:45:02.318Z,21.8297
2023-05-23T05:46:10.535Z,25.5587
2023-05-23T05:47:18.722Z,21.6373
2023-05-23T05:48:26.722Z,18.4817
2023-05-23T05:49:34.679Z,16.2824
2023-05-23T05:50:42.727Z,15.7029
2023-05-23T05:51:50.827Z,15.8751
2023-05-23T05:52:58.887Z,17.1278
2023-05-23T05:54:06.918Z,16.7060
2023-05-23T05:55:15.016Z,20.5639
2023-05-23T05:56:23.145Z,52.3839
2023-05-23T05:57:31.304Z,52.1006
2023-05-23T05:58:39.146Z,54.1259
2023-05-23T05:59:47.049Z,45.1196
2023-05-23T06:00:55.236Z,39.2318
2023-05-23T06:02:03.172Z,41.9819
2023-05-23T06:03:11.513Z,36.8586
2023-05-23T06:04:19.476Z,27.8683
2023-05-23T06:05:27.481Z,20.7526
2023-05-23T06:06:35.732Z,17.7000
2023-05-23T06:07:43.572Z,16.8098
2023-05-23T06:08:51.637Z,16.8800
2023-05-23T06:09:59.808Z,16.5458
2023-05-23T06:11:07.870Z,16.2618
2023-05-23T06:12:15.791Z,16.6103
2023-05-23T06:13:23.941Z,16.0681
2023-05-23T06:14:32.010Z,16.2472
2023-05-23T06:15:39.983Z,16.8294
2023-05-23T06:16:48.131Z,16.4679
2023-05-23T06:17:56.259Z,16.5693
2023-05-23T06:19:04.248Z,15.7968
2023-05-23T06:20:12.248Z,16.6652
2023-05-23T06:21:20.297Z,16.1417
2023-05-23T06:22:28.169Z,17.3011
2023-05-23T06:23:36.449Z,17.4390
2023-05-23T06:24:44.460Z,16.7397
2023-05-23T06:25:52.628Z,16.3076
2023-05-23T06:27:00.628Z,16.6788
2023-05-23T06:28:08.631Z,16.7417
2023-05-23T06:29:16.725Z,16.5329
2023-05-23T06:30:24.761Z,18.4620
2023-05-23T06:31:32.818Z,18.2643
2023-05-23T06:32:40.953Z,22.1492
2023-05-23T06:33:48.828Z,23.4032
2023-05-23T06:34:57.026Z,24.8976
2023-05-23T06:36:05.048Z,45.2387
2023-05-23T06:37:13.103Z,64.7272
2023-05-23T06:38:21.189Z,59.5347
2023-05-23T06:39:29.278Z,32.3092
2023-05-23T06:40:37.266Z,22.1033
2023-05-23T06:41:45.351Z,18.2860
2023-05-23T06:42:53.428Z,17.6699
2023-05-23T06:44:01.467Z,17.8662
2023-05-23T06:45:09.534Z,40.6136
2023-05-23T06:46:17.490Z,43.1601
2023-05-23T06:47:25.867Z,48.3836
2023-05-23T06:48:33.571Z,37.0589
2023-05-23T06:49:41.873Z,21.9574
2023-05-23T06:50:49.823Z,18.8986
2023-05-23T06:51:57.913Z,17.8615
2023-05-23T06:53:06.047Z,17.1877
2023-05-23T06:54:13.892Z,16.6622
2023-05-23T06:55:22.086Z,17.2110
2023-05-23T06:56:30.133Z,17.8566
2023-05-23T06:57:38.170Z,16.9554
2023-05-23T06:58:47.249Z,17.6163
2023-05-23T06:59:54.201Z,17.1733
2023-05-23T07:01:02.397Z,17.8010
2023-05-23T07:02:10.435Z,17.7879
2023-05-23T07:03:18.522Z,16.9330
2023-05-23T07:04:26.560Z,17.6239
2023-05-23T07:05:34.708Z,17.6181
2023-05-23T07:06:42.847Z,17.5378
2023-05-23T07:07:50.740Z,17.9226
2023-05-23T07:08:58.761Z,16.8906
2023-05-23T07:10:06.876Z,17.0295
2023-05-23T07:11:15.018Z,17.3926
2023-05-23T07:12:23.000Z,17.3077
2023-05-23T07:13:31.075Z,18.1016
2023-05-23T07:14:39.248Z,18.2559
2023-05-23T07:15:47.329Z,17.7382
2023-05-23T07:16:55.310Z,18.3479
2023-05-23T07:18:03.289Z,17.8846
2023-05-23T07:19:11.401Z,18.1275
2023-05-23T07:20:19.401Z,18.4726
2023-05-23T07:21:27.512Z,18.2812
2023-05-23T07:22:35.381Z,18.2448
2023-05-23T07:23:43.456Z,18.2568
2023-05-23T07:24:51.629Z,18.7295
2023-05-23T07:26:02.963Z,18.1745
2023-05-23T07:27:12.631Z,18.8960
2023-05-23T07:28:20.675Z,18.6440
2023-05-23T07:29:28.767Z,17.9898
2023-05-23T07:30:36.873Z,18.3221
2023-05-23T07:31:44.949Z,18.6462
2023-05-23T07:32:53.077Z,18.2555
2023-05-23T07:34:01.018Z,18.4523
2023-05-23T07:35:09.041Z,18.0261
2023-05-23T07:36:17.141Z,18.7507
2023-05-23T07:37:25.202Z,18.5751
2023-05-23T07:38:33.101Z,18.1196
2023-05-23T07:39:41.440Z,18.4992
2023-05-23T07:40:58.844Z,18.3873
2023-05-23T07:42:02.470Z,18.8724
2023-05-23T07:43:10.335Z,18.7014
2023-05-23T07:44:18.388Z,18.7592
2023-05-23T07:45:26.429Z,18.8783
2023-05-23T07:46:34.389Z,19.8604
2023-05-23T07:47:42.828Z,19.6743
2023-05-23T07:48:50.635Z,20.1217
2023-05-23T07:49:58.646Z,19.6802
2023-05-23T07:51:06.816Z,20.4942
2023-05-23T07:52:14.919Z,20.4188
2023-05-23T07:53:22.930Z,20.0541
2023-05-23T07:54:30.938Z,20.5149
2023-05-23T07:55:38.989Z,20.1911
2023-05-23T07:56:47.175Z,20.3798
2023-05-23T07:57:55.103Z,19.4033
2023-05-23T07:59:03.185Z,20.3691
2023-05-23T08:00:11.306Z,19.6078
2023-05-23T08:01:19.325Z,20.4521
2023-05-23T08:02:27.420Z,20.2514
2023-05-23T08:03:35.374Z,20.5124
2023-05-23T08:04:43.492Z,19.6291
2023-05-23T08:05:51.542Z,19.7751
2023-05-23T08:07:05.485Z,19.7899
2023-05-23T08:08:12.546Z,20.0986
2023-05-23T08:09:20.754Z,20.3603
2023-05-23T08:10:28.479Z,20.8084
2023-05-23T08:11:36.798Z,22.7847
2023-05-23T08:12:44.713Z,44.6911
2023-05-23T08:13:52.976Z,74.4697
2023-05-23T08:15:00.863Z,58.3649
2023-05-23T08:16:08.944Z,34.4272
2023-05-23T08:17:17.050Z,27.2838
2023-05-23T08:18:25.045Z,22.7954
2023-05-23T08:19:33.290Z,23.8932
2023-05-23T08:20:41.390Z,64.3149
2023-05-23T08:21:49.070Z,71.8642
2023-05-23T08:22:57.534Z,68.8127
2023-05-23T08:24:05.343Z,67.5250
2023-05-23T08:25:13.375Z,56.9254
2023-05-23T08:26:21.490Z,31.3145
2023-05-23T08:27:29.379Z,24.2169
2023-05-23T08:28:37.581Z,23.2555
2023-05-23T08:29:45.668Z,22.0822
2023-05-23T08:30:53.714Z,22.8017
2023-05-23T08:32:01.830Z,23.8253
2023-05-23T08:33:09.691Z,29.8255
2023-05-23T08:34:17.893Z,55.6065
2023-05-23T08:35:25.939Z,51.8428
2023-05-23T08:36:33.986Z,28.3356
2023-05-23T08:37:42.238Z,23.7950
2023-05-23T08:38:50.010Z,25.8168
2023-05-23T08:39:58.170Z,26.9223
2023-05-23T08:41:06.196Z,23.7144
2023-05-23T08:42:14.614Z,27.9925
2023-05-23T08:43:22.390Z,41.2200
2023-05-23T08:44:30.476Z,62.5921
2023-05-23T08:45:38.509Z,77.2479
2023-05-23T08:46:46.704Z,52.8423
2023-05-23T08:47:54.750Z,28.6891
2023-05-23T08:49:02.785Z,22.2166
2023-05-23T08:50:10.987Z,22.1233
2023-05-23T08:51:18.907Z,22.0739
2023-05-23T08:52:27.009Z,20.1471
2023-05-23T08:53:34.824Z,20.3104
2023-05-23T08:54:43.040Z,20.5326
2023-05-23T08:55:51.113Z,19.1995
2023-05-23T08:56:59.008Z,19.8889
2023-05-23T08:58:07.215Z,19.7974
2023-05-23T08:59:15.140Z,19.8374
2023-05-23T09:00:23.435Z,20.9337
2023-05-23T09:01:31.642Z,21.0360
2023-05-23T09:02:39.494Z,22.4285
2023-05-23T09:03:47.486Z,25.4782
2023-05-23T09:04:55.431Z,25.0302
2023-05-23T09:06:03.733Z,29.7551
2023-05-23T09:07:11.929Z,32.7088
2023-05-23T09:08:19.752Z,25.8517
2023-05-23T09:09:27.794Z,22.0739
2023-05-23T09:10:35.924Z,20.8279
2023-05-23T09:11:43.936Z,21.5840
2023-05-23T09:12:51.975Z,22.8756
2023-05-23T09:13:59.934Z,21.6246
2023-05-23T09:15:08.107Z,25.7237
2023-05-23T09:16:16.052Z,40.3600
2023-05-23T09:17:24.383Z,42.1703
2023-05-23T09:18:32.332Z,42.4159
2023-05-23T09:19:40.413Z,36.3704
2023-05-23T09:20:48.429Z,25.1334
2023-05-23T09:21:56.487Z,24.6844
2023-05-23T09:23:04.552Z,25.2951
2023-05-23T09:24:12.847Z,25.0166
2023-05-23T09:25:20.507Z,29.4680
2023-05-23T09:26:28.750Z,55.3300
2023-05-23T09:27:36.770Z,30.9640
2023-05-23T09:28:44.756Z,26.4020
2023-05-23T09:29:52.902Z,21.8344
2023-05-23T09:31:01.068Z,21.2136
2023-05-23T09:32:09.300Z,23.1256
2023-05-23T09:33:17.183Z,27.8198
2023-05-23T09:34:25.142Z,29.0933
2023-05-23T09:35:33.177Z,22.5882
2023-05-23T09:36:41.157Z,26.5371
2023-05-23T09:37:49.333Z,31.7345
2023-05-23T09:38:57.415Z,26.9720
2023-05-23T09:40:05.564Z,22.9183
2023-05-23T09:41:13.496Z,21.4289
2023-05-23T09:42:21.437Z,20.8030
2023-05-23T09:43:29.747Z,20.1079
2023-05-23T09:44:37.698Z,19.4012
2023-05-23T09:45:45.796Z,19.8817
2023-05-23T09:46:53.963Z,19.5435
2023-05-23T09:48:01.895Z,21.2350
2023-05-23T09:49:10.088Z,20.9185
2023-05-23T09:50:18.048Z,20.8068
2023-05-23T09:51:26.046Z,20.6448
2023-05-23T09:52:34.076Z,20.6193
2023-05-23T09:53:42.273Z,20.7016
2023-05-23T09:54:50.096Z,21.8692
2023-05-23T09:55:58.259Z,19.8106
2023-05-23T09:57:07.181Z,19.5236
2023-05-23T09:58:14.427Z,19.7312
2023-05-23T09:59:22.517Z,19.3240
2023-05-23T10:00:30.391Z,18.6447
2023-05-23T10:01:38.812Z,18.8653
2023-05-23T10:02:46.607Z,19.5373
2023-05-23T10:03:55.567Z,18.5618
2023-05-23T10:05:02.807Z,18.1892
2023-05-23T10:06:10.701Z,18.3573
2023-05-23T10:07:18.908Z,17.3744
2023-05-23T10:08:26.807Z,17.2077
2023-05-23T10:09:35.264Z,17.8725
2023-05-23T10:10:43.245Z,18.0651
2023-05-23T10:11:51.147Z,17.4490
2023-05-23T10:12:59.254Z,17.0729
2023-05-23T10:14:07.237Z,17.0460
2023-05-23T10:15:15.397Z,17.7615
2023-05-23T10:16:23.424Z,16.4197
2023-05-23T10:17:31.488Z,16.6555
2023-05-23T10:18:39.729Z,15.9968
2023-05-23T10:19:47.601Z,15.8209
2023-05-23T10:20:55.806Z,15.9800
2023-05-23T10:22:03.752Z,16.2632
2023-05-23T10:23:11.907Z,17.3318
2023-05-23T10:24:19.904Z,17.3839
2023-05-23T10:25:27.932Z,17.0635
2023-05-23T10:26:35.909Z,16.8494
2023-05-23T10:27:44.311Z,16.7248
2023-05-23T10:28:52.235Z,17.1989
2023-05-23T10:30:00.221Z,16.7903
2023-05-23T10:31:08.325Z,17.2140
2023-05-23T10:32:16.404Z,17.8333
2023-05-23T10:33:24.379Z,16.3683
2023-05-23T10:34:32.355Z,16.8979
2023-05-23T10:35:40.578Z,16.7715
2023-05-23T10:36:48.631Z,15.6424
2023-05-23T10:37:56.519Z,17.0234
2023-05-23T10:39:04.716Z,16.7516
2023-05-23T10:40:12.659Z,17.1649
2023-05-23T10:41:20.833Z,15.9225
2023-05-23T10:42:28.971Z,16.6391
2023-05-23T10:43:36.864Z,16.4559
2023-05-23T10:44:45.132Z,16.2056
2023-05-23T10:45:53.002Z,16.0649
2023-05-23T10:47:01.273Z,16.4146
2023-05-23T10:48:09.283Z,17.2951
2023-05-23T10:49:17.300Z,16.7402
2023-05-23T10:50:25.371Z,17.1020
2023-05-23T10:51:33.454Z,17.7299
2023-05-23T10:52:41.554Z,17.3576
2023-05-23T10:53:49.579Z,16.6186
2023-05-23T10:54:57.676Z,17.1293
2023-05-23T10:56:05.747Z,17.3122
2023-05-23T10:57:13.760Z,16.7511
2023-05-23T10:58:21.762Z,18.0558
2023-05-23T10:59:29.964Z,17.5840
2023-05-23T11:00:37.987Z,17.1469
2023-05-23T11:01:46.006Z,17.9156
2023-05-23T11:02:54.155Z,18.3502
2023-05-23T11:04:02.306Z,18.1168
2023-05-23T11:05:10.194Z,19.0212
2023-05-23T11:06:18.254Z,18.1992
2023-05-23T11:07:26.499Z,18.1675
2023-05-23T11:08:46.715Z,18.3187
2023-05-23T11:09:47.277Z,55.2242
2023-05-23T11:10:55.330Z,74.7658
2023-05-23T11:12:03.439Z,26.7656
2023-05-23T11:13:11.634Z,21.4211
2023-05-23T11:14:19.845Z,16.8653
2023-05-23T11:15:27.584Z,16.5934
2023-05-23T11:16:35.669Z,16.3060
2023-05-23T11:17:43.917Z,17.2676
2023-05-23T11:18:51.747Z,19.6575
2023-05-23T11:19:59.889Z,26.7116
2023-05-23T11:21:07.936Z,36.1460
2023-05-23T11:22:16.061Z,77.5907
2023-05-23T11:23:24.083Z,84.2629
2023-05-23T11:24:32.205Z,40.6526
2023-05-23T11:25:40.290Z,20.2538
2023-05-23T11:26:48.179Z,17.5070
2023-05-23T11:27:56.248Z,16.6855
2023-05-23T11:29:04.471Z,16.5580
2023-05-23T11:30:12.716Z,17.7416
2023-05-23T11:31:20.619Z,17.3169
2023-05-23T11:32:28.787Z,17.0516
2023-05-23T11:33:36.699Z,18.8576
2023-05-23T11:34:44.815Z,22.8407
2023-05-23T11:35:52.698Z,58.2745
2023-05-23T11:37:00.844Z,57.4051
2023-05-23T11:38:09.059Z,59.8521
2023-05-23T11:39:17.000Z,51.4976
2023-05-23T11:40:25.120Z,54.9396
2023-05-23T11:41:33.170Z,30.8738
2023-05-23T11:42:41.217Z,20.2042
2023-05-23T11:43:49.246Z,18.4912
2023-05-23T11:44:57.463Z,18.1961
2023-05-23T11:46:05.467Z,18.0299
2023-05-23T11:47:13.448Z,32.2378
2023-05-23T11:48:21.512Z,77.6415
2023-05-23T11:49:29.717Z,67.3411
2023-05-23T11:50:37.559Z,60.7703
2023-05-23T11:51:45.740Z,26.5357
2023-05-23T11:52:53.809Z,19.2074
2023-05-23T11:54:01.926Z,18.1370
2023-05-23T11:55:09.801Z,24.9018
2023-05-23T11:56:18.101Z,20.8851
2023-05-23T11:57:26.140Z,20.3719
2023-05-23T11:58:34.149Z,20.8456
2023-05-23T11:59:42.261Z,20.0547
2023-05-23T12:00:50.798Z,19.5822
2023-05-23T12:01:58.341Z,20.1286
2023-05-23T12:03:06.483Z,20.2662
2023-05-23T12:04:14.514Z,20.1147
2023-05-23T12:05:22.618Z,21.1268
2023-05-23T12:06:30.606Z,21.0341
2023-05-23T12:07:38.651Z,23.4747
2023-05-23T12:08:46.702Z,28.2783
2023-05-23T12:09:54.800Z,34.8237
2023-05-23T12:11:02.904Z,31.8829
2023-05-23T12:12:11.039Z,24.9285
2023-05-23T12:13:18.935Z,22.3072
2023-05-23T12:14:27.207Z,26.9792
2023-05-23T12:15:35.080Z,25.6450
2023-05-23T12:16:43.274Z,24.0669
2023-05-23T12:17:51.234Z,28.8313
2023-05-23T12:18:59.229Z,37.4783
2023-05-23T12:20:07.352Z,38.1053
2023-05-23T12:21:15.384Z,31.2312
2023-05-23T12:22:23.358Z,28.4453
2023-05-23T12:23:34.503Z,32.6566
2023-05-23T12:24:44.304Z,30.2304
2023-05-23T12:25:52.562Z,32.9281
2023-05-23T12:27:00.556Z,44.7873
2023-05-23T12:28:08.601Z,58.5832
2023-05-23T12:29:16.559Z,52.1676
2023-05-23T12:30:24.680Z,54.8920
2023-05-23T12:31:32.986Z,66.5409
2023-05-23T12:32:41.191Z,75.2239
2023-05-23T12:33:49.792Z,67.3244
2023-05-23T12:34:57.122Z,57.7198
2023-05-23T12:36:05.299Z,63.0990
2023-05-23T12:37:19.428Z,113.7522
2023-05-23T12:38:26.089Z,60.8875
2023-05-23T12:39:34.003Z,64.5066
2023-05-23T12:40:42.160Z,39.3103
2023-05-23T12:41:50.277Z,62.1780
2023-05-23T12:42:58.165Z,80.0266
2023-05-23T12:44:06.358Z,75.6278
2023-05-23T12:45:14.639Z,49.2877
2023-05-23T12:46:22.745Z,42.3417
2023-05-23T12:47:30.671Z,55.5375
2023-05-23T12:48:38.565Z,84.5143
2023-05-23T12:49:46.668Z,59.4865
2023-05-23T12:50:54.644Z,95.7523
2023-05-23T12:52:02.778Z,92.4954
2023-05-23T12:53:10.958Z,31.4197
2023-05-23T12:54:19.089Z,23.8065
2023-05-23T12:55:27.029Z,22.9072
2023-05-23T12:56:35.048Z,44.9957
2023-05-23T12:57:43.193Z,60.4978
2023-05-23T12:58:51.321Z,41.4826
2023-05-23T12:59:59.337Z,27.8844
2023-05-23T13:01:07.430Z,41.2853
2023-05-23T13:02:15.506Z,51.8694
2023-05-23T13:03:23.760Z,45.8317
2023-05-23T13:04:32.615Z,34.5655
2023-05-23T13:05:40.235Z,61.2820
2023-05-23T13:06:47.732Z,64.4662
2023-05-23T13:07:55.766Z,68.0936
2023-05-23T13:09:03.707Z,69.6831
2023-05-23T13:10:12.028Z,39.7983
2023-05-23T13:11:19.890Z,42.4160
2023-05-23T13:12:28.106Z,40.8730
2023-05-23T13:13:36.237Z,59.1777
2023-05-23T13:14:44.255Z,47.2133
2023-05-23T13:15:52.323Z,25.5601
2023-05-23T13:17:00.745Z,23.2640
2023-05-23T13:18:08.443Z,24.5596
2023-05-23T13:19:16.482Z,23.5950
2023-05-23T13:20:24.594Z,25.5261
2023-05-23T13:21:32.589Z,29.9470
2023-05-23T13:22:40.508Z,55.9836
2023-05-23T13:23:48.845Z,70.3848
2023-05-23T13:24:56.811Z,93.5450
2023-05-23T13:26:04.875Z,94.7092
2023-05-23T13:27:12.999Z,71.3771
2023-05-23T13:28:20.961Z,32.2228
2023-05-23T13:29:29.014Z,28.6487
2023-05-23T13:30:36.966Z,21.6181
2023-05-23T13:31:45.324Z,17.8455
2023-05-23T13:32:53.300Z,17.2478
2023-05-23T13:34:01.333Z,17.3696
2023-05-23T13:35:09.345Z,16.4025
2023-05-23T13:36:17.408Z,16.9257
2023-05-23T13:37:25.505Z,20.7335
2023-05-23T13:38:33.676Z,17.7989
2023-05-23T13:39:41.729Z,15.0529
2023-05-23T13:40:51.362Z,15.8102
2023-05-23T13:41:57.767Z,16.0461
2023-05-23T13:43:05.772Z,15.5963